createdAt,value
2018-05-27T00:01:10.684Z,51.78
2018-05-27T00:03:12.683Z,51.01
2018-05-27T00:05:14.545Z,51.39
2018-05-27T00:07:16.524Z,51.01
2018-05-27T00:09:18.398Z,51.20
2018-05-27T00:11:20.683Z,51.20
2018-05-27T00:13:22.634Z,51.39
2018-05-27T00:15:24.822Z,51.68
2018-05-27T00:17:26.759Z,51.39
2018-05-27T00:19:28.986Z,51.59
2018-05-27T00:21:30.983Z,52.04
2018-05-27T00:23:32.901Z,51.65
2018-05-27T00:26:21.924Z,52.04
2018-05-27T00:28:23.495Z,52.04
2018-05-27T00:30:25.291Z,52.04
2018-05-27T00:32:27.253Z,52.23
2018-05-27T00:34:30.158Z,52.53
2018-05-27T00:36:31.959Z,53.01
2018-05-27T00:38:33.867Z,53.30
2018-05-27T00:40:35.791Z,53.30
2018-05-27T00:42:37.749Z,53.39
2018-05-27T00:44:39.649Z,53.78
2018-05-27T00:46:41.857Z,53.47
2018-05-27T00:48:43.489Z,53.56
2018-05-27T00:50:45.720Z,53.85
2018-05-27T00:52:47.925Z,54.14
2018-05-27T00:54:49.923Z,54.72
2018-05-27T00:56:52.330Z,54.33
2018-05-27T00:58:54.571Z,54.72
2018-05-27T01:00:56.426Z,54.82
2018-05-27T01:02:58.409Z,54.33
2018-05-27T01:05:00.450Z,55.30
2018-05-27T01:07:02.402Z,55.10
2018-05-27T01:09:04.135Z,54.98
2018-05-27T01:11:06.719Z,54.98
2018-05-27T01:13:08.561Z,55.08
2018-05-27T01:15:10.417Z,55.66
2018-05-27T01:17:12.341Z,55.66
2018-05-27T01:19:14.323Z,55.94
2018-05-27T01:21:16.253Z,55.85
2018-05-27T01:23:18.273Z,56.14
2018-05-27T01:25:20.247Z,55.66
2018-05-27T01:27:22.270Z,55.85
2018-05-27T01:29:24.232Z,56.43
2018-05-27T01:31:26.251Z,55.76
2018-05-27T01:33:28.351Z,56.72
2018-05-27T01:35:30.213Z,55.92
2018-05-27T01:37:32.448Z,56.40
2018-05-27T01:39:34.418Z,56.30
2018-05-27T01:41:36.335Z,56.79
2018-05-27T01:43:38.235Z,56.88
2018-05-27T01:45:40.132Z,56.98
2018-05-27T01:47:42.039Z,56.88
2018-05-27T01:49:44.161Z,57.56
2018-05-27T01:51:46.219Z,56.88
2018-05-27T01:54:30.085Z,57.37
2018-05-27T01:56:32.436Z,57.17
2018-05-27T01:58:34.845Z,57.56
2018-05-27T02:00:37.183Z,57.65
2018-05-27T02:02:39.126Z,57.65
2018-05-27T02:04:41.124Z,57.27
2018-05-27T02:06:43.038Z,57.43
2018-05-27T02:08:45.275Z,58.11
2018-05-27T02:10:47.236Z,57.92
2018-05-27T02:12:49.111Z,58.01
2018-05-27T02:14:50.855Z,58.11
2018-05-27T02:16:53.206Z,57.92
2018-05-27T02:18:55.005Z,58.30
2018-05-27T02:20:56.784Z,58.01
2018-05-27T02:22:58.718Z,58.69
2018-05-27T02:25:00.620Z,58.78
2018-05-27T02:27:02.548Z,58.88
2018-05-27T02:29:04.428Z,58.30
2018-05-27T02:31:06.274Z,59.07
2018-05-27T02:33:08.175Z,59.04
2018-05-27T02:35:10.207Z,58.85
2018-05-27T02:37:12.207Z,59.04
2018-05-27T02:39:14.132Z,59.33
2018-05-27T02:41:16.006Z,59.43
2018-05-27T02:43:18.020Z,59.33
2018-05-27T02:45:20.000Z,59.33
2018-05-27T02:47:21.870Z,59.52
2018-05-27T02:49:24.722Z,59.81
2018-05-27T02:51:26.572Z,60.00
2018-05-27T02:53:28.423Z,59.81
2018-05-27T02:56:13.187Z,60.00
2018-05-27T02:58:15.438Z,59.81
2018-05-27T03:00:17.102Z,60.39
2018-05-27T03:02:18.980Z,60.58
2018-05-27T03:04:20.777Z,60.46
2018-05-27T03:06:22.703Z,60.36
2018-05-27T03:08:24.577Z,60.55
2018-05-27T03:10:26.267Z,60.84
2018-05-27T03:12:28.148Z,61.04
2018-05-27T03:14:29.969Z,61.04
2018-05-27T03:16:32.354Z,61.22
2018-05-27T03:18:34.117Z,61.13
2018-05-27T03:20:35.857Z,61.04
2018-05-27T03:22:38.229Z,60.75
2018-05-27T03:24:40.431Z,61.80
2018-05-27T03:26:42.353Z,62.00
2018-05-27T03:28:44.757Z,61.90
2018-05-27T03:30:46.671Z,62.00
2018-05-27T03:32:48.929Z,61.52
2018-05-27T03:34:50.911Z,61.80
2018-05-27T03:36:53.215Z,61.42
2018-05-27T03:38:55.525Z,61.80
2018-05-27T03:40:57.399Z,62.19
2018-05-27T03:42:59.353Z,62.00
2018-05-27T03:45:01.252Z,62.38
2018-05-27T03:47:03.231Z,62.09
2018-05-27T03:49:05.586Z,62.19
2018-05-27T03:51:07.493Z,62.77
2018-05-27T03:53:09.486Z,62.87
2018-05-27T03:55:11.333Z,63.15
2018-05-27T03:57:13.251Z,63.15
2018-05-27T03:59:15.209Z,63.25
2018-05-27T04:01:17.122Z,63.44
2018-05-27T04:03:19.349Z,63.44
2018-05-27T04:05:21.280Z,64.02
2018-05-27T04:07:23.299Z,63.64
2018-05-27T04:09:25.342Z,63.82
2018-05-27T04:11:27.152Z,64.02
2018-05-27T04:13:29.153Z,64.69
2018-05-27T04:15:31.120Z,64.40
2018-05-27T04:18:16.133Z,64.21
2018-05-27T04:20:18.484Z,64.69
2018-05-27T04:22:20.679Z,64.59
2018-05-27T04:24:22.514Z,64.69
2018-05-27T04:26:25.292Z,64.50
2018-05-27T04:28:27.356Z,64.69
2018-05-27T04:30:29.222Z,65.37
2018-05-27T04:32:31.280Z,65.46
2018-05-27T04:34:33.391Z,65.37
2018-05-27T04:36:35.661Z,65.27
2018-05-27T04:39:22.091Z,65.37
2018-05-27T04:41:24.401Z,66.24
2018-05-27T04:43:26.811Z,65.56
2018-05-27T04:45:28.713Z,65.17
2018-05-27T04:47:31.015Z,65.37
2018-05-27T04:49:32.962Z,64.98
2018-05-27T04:51:35.218Z,64.79
2018-05-27T04:53:37.331Z,65.17
2018-05-27T04:55:39.443Z,64.40
2018-05-27T04:57:41.625Z,64.92
2018-05-27T04:59:43.427Z,65.11
2018-05-27T05:01:45.376Z,64.40
2018-05-27T05:03:47.294Z,65.40
2018-05-27T05:05:49.208Z,64.69
2018-05-27T05:07:51.514Z,64.59
2018-05-27T05:09:53.437Z,63.67
2018-05-27T05:11:55.516Z,63.85
2018-05-27T05:13:57.476Z,64.34
2018-05-27T05:15:59.483Z,65.11
2018-05-27T05:18:01.363Z,64.63
2018-05-27T05:20:03.414Z,64.34
2018-05-27T05:22:05.671Z,64.34
2018-05-27T05:24:07.293Z,64.25
2018-05-27T05:26:09.149Z,63.76
2018-05-27T05:28:10.965Z,63.67
2018-05-27T05:30:13.184Z,63.79
2018-05-27T05:32:14.856Z,64.25
2018-05-27T05:34:16.727Z,63.31
2018-05-27T05:36:18.632Z,63.60
2018-05-27T05:38:20.385Z,63.34
2018-05-27T05:40:22.400Z,62.12
2018-05-27T05:42:24.092Z,61.16
2018-05-27T05:44:26.076Z,59.96
2018-05-27T05:46:28.301Z,57.38
2018-05-27T05:48:30.141Z,56.71
2018-05-27T05:51:14.117Z,56.28
2018-05-27T05:53:16.267Z,53.53
2018-05-27T05:55:17.869Z,50.94
2018-05-27T05:57:19.540Z,49.51
2018-05-27T05:59:21.152Z,49.61
2018-05-27T06:01:23.064Z,49.54
2018-05-27T06:03:25.267Z,48.78
2018-05-27T06:05:27.088Z,47.83
2018-05-27T06:07:28.908Z,46.42
2018-05-27T06:09:30.914Z,43.95
2018-05-27T06:11:32.809Z,41.99
2018-05-27T06:13:34.729Z,39.51
2018-05-27T06:15:36.422Z,38.04
2018-05-27T06:17:38.273Z,37.70
2018-05-27T06:19:40.104Z,36.62
2018-05-27T06:21:41.942Z,37.48
2018-05-27T06:23:43.859Z,38.26
2018-05-27T06:25:46.018Z,39.02
2018-05-27T06:27:47.715Z,39.39
2018-05-27T06:29:49.733Z,38.06
2018-05-27T06:31:51.619Z,37.67
2018-05-27T06:33:53.695Z,37.01
2018-05-27T06:35:55.788Z,37.40
2018-05-27T06:37:57.628Z,36.63
2018-05-27T06:39:59.535Z,35.69
2018-05-27T06:42:01.462Z,34.75
2018-05-27T06:44:03.255Z,33.51
2018-05-27T06:46:05.156Z,32.86
2018-05-27T06:48:06.978Z,31.50
2018-05-27T06:50:08.991Z,31.22
2018-05-27T06:52:10.892Z,31.13
2018-05-27T06:54:13.042Z,30.18
2018-05-27T06:56:15.100Z,29.11
2018-05-27T06:58:16.986Z,28.54
2018-05-27T07:00:18.840Z,27.19
2018-05-27T07:02:20.880Z,27.30
2018-05-27T07:04:22.853Z,26.51
2018-05-27T07:06:24.757Z,26.90
2018-05-27T07:08:26.601Z,26.43
2018-05-27T07:10:28.589Z,27.31
2018-05-27T07:12:30.534Z,26.72
2018-05-27T07:14:32.317Z,26.41
2018-05-27T07:16:34.372Z,27.17
2018-05-27T07:18:36.507Z,27.75
2018-05-27T07:20:38.467Z,28.31
2018-05-27T07:22:40.452Z,29.75
2018-05-27T07:24:42.504Z,31.58
2018-05-27T07:26:44.615Z,32.82
2018-05-27T07:28:46.771Z,33.56
2018-05-27T07:30:48.813Z,35.09
2018-05-27T07:32:50.652Z,36.43
2018-05-27T07:34:52.792Z,38.24
2018-05-27T07:36:55.282Z,39.84
2018-05-27T07:39:42.431Z,41.46
2018-05-27T07:41:44.227Z,43.58
2018-05-27T07:43:46.111Z,45.21
2018-05-27T07:45:48.110Z,45.97
2018-05-27T07:47:49.997Z,46.55
2018-05-27T07:49:52.090Z,47.11
2018-05-27T07:51:54.123Z,48.44
2018-05-27T07:53:56.165Z,48.25
2018-05-27T07:55:58.282Z,49.49
2018-05-27T07:58:00.254Z,49.00
2018-05-27T08:00:02.232Z,49.68
2018-05-27T08:02:04.333Z,49.87
2018-05-27T08:04:06.338Z,51.53
2018-05-27T08:06:08.287Z,51.33
2018-05-27T08:08:10.295Z,49.29
2018-05-27T08:10:12.253Z,50.56
2018-05-27T08:12:14.109Z,50.07
2018-05-27T08:14:15.975Z,50.26
2018-05-27T08:16:17.911Z,50.07
2018-05-27T08:18:20.014Z,51.04
2018-05-27T08:20:22.054Z,51.23
2018-05-27T08:22:23.993Z,51.26
2018-05-27T08:24:26.118Z,49.22
2018-05-27T08:26:27.923Z,50.19
2018-05-27T08:28:29.935Z,50.38
2018-05-27T08:30:31.690Z,49.24
2018-05-27T08:32:33.667Z,49.44
2018-05-27T08:34:35.579Z,49.15
2018-05-27T08:36:37.684Z,49.76
2018-05-27T08:38:39.638Z,49.46
2018-05-27T08:40:41.777Z,48.90
2018-05-27T08:42:43.709Z,49.29
2018-05-27T08:44:45.733Z,48.03
2018-05-27T08:46:47.414Z,48.03
2018-05-27T08:48:48.996Z,47.27
2018-05-27T08:50:50.705Z,46.40
2018-05-27T08:52:52.801Z,44.94
2018-05-27T08:54:54.791Z,43.09
2018-05-27T08:56:56.777Z,44.26
2018-05-27T08:58:58.762Z,44.06
2018-05-27T09:01:00.651Z,45.06
2018-05-27T09:03:02.591Z,43.79
2018-05-27T09:05:04.515Z,43.89
2018-05-27T09:07:06.378Z,42.94
2018-05-27T09:09:08.232Z,43.04
2018-05-27T09:11:09.926Z,44.23
2018-05-27T09:13:12.032Z,41.99
2018-05-27T09:15:13.878Z,41.99
2018-05-27T09:17:16.018Z,40.72
2018-05-27T09:19:18.170Z,41.20
2018-05-27T09:21:20.280Z,41.71
2018-05-27T09:23:22.093Z,41.13
2018-05-27T09:25:24.062Z,42.30
2018-05-27T09:27:26.053Z,41.52
2018-05-27T09:29:28.009Z,39.47
2018-05-27T09:31:29.854Z,40.16
2018-05-27T09:33:31.779Z,40.17
2018-05-27T09:35:33.578Z,40.86
2018-05-27T09:37:35.505Z,39.39
2018-05-27T09:39:37.292Z,39.20
2018-05-27T09:41:39.210Z,40.00
2018-05-27T09:43:41.028Z,39.31
2018-05-27T09:45:42.891Z,39.02
2018-05-27T09:47:44.621Z,40.39
2018-05-27T09:49:46.543Z,37.95
2018-05-27T09:51:48.523Z,38.65
2018-05-27T09:53:50.407Z,38.26
2018-05-27T09:55:52.212Z,39.33
2018-05-27T09:57:54.068Z,40.04
2018-05-27T09:59:56.149Z,39.36
2018-05-27T10:01:58.133Z,38.96
2018-05-27T10:04:00.018Z,38.89
2018-05-27T10:06:02.263Z,36.63
2018-05-27T10:08:04.387Z,34.97
2018-05-27T10:10:06.319Z,37.12
2018-05-27T10:12:08.318Z,38.30
2018-05-27T10:14:10.245Z,36.24
2018-05-27T10:16:12.120Z,36.34
2018-05-27T10:18:14.269Z,36.05
2018-05-27T10:20:16.200Z,37.30
2018-05-27T10:22:18.136Z,38.40
2018-05-27T10:24:19.988Z,38.89
2018-05-27T10:26:21.797Z,36.26
2018-05-27T10:28:23.777Z,35.97
2018-05-27T10:30:25.819Z,35.36
2018-05-27T10:32:27.664Z,35.56
2018-05-27T10:34:29.545Z,37.24
2018-05-27T10:36:31.489Z,35.48
2018-05-27T10:39:13.987Z,34.70
2018-05-27T10:41:15.401Z,35.07
2018-05-27T10:43:16.854Z,35.48
2018-05-27T10:45:18.301Z,34.41
2018-05-27T10:47:19.750Z,34.57
2018-05-27T10:49:21.194Z,35.17
2018-05-27T10:51:22.661Z,35.36
2018-05-27T10:53:24.109Z,35.19
2018-05-27T10:55:25.584Z,35.68
2018-05-27T10:57:27.026Z,34.70
2018-05-27T10:59:28.474Z,34.60
2018-05-27T11:01:29.919Z,34.21
2018-05-27T11:03:31.366Z,35.87
2018-05-27T11:05:32.810Z,33.82
2018-05-27T11:07:34.258Z,33.92
2018-05-27T11:09:35.708Z,34.60
2018-05-27T11:11:37.155Z,35.09
2018-05-27T11:13:38.604Z,33.53
2018-05-27T11:15:40.053Z,34.70
2018-05-27T11:17:41.501Z,34.81
2018-05-27T11:19:42.948Z,35.30
2018-05-27T11:21:44.393Z,35.50
2018-05-27T11:23:45.841Z,34.62
2018-05-27T11:25:47.290Z,35.40
2018-05-27T11:27:48.738Z,34.72
2018-05-27T11:29:50.205Z,33.25
2018-05-27T11:31:51.635Z,33.34
2018-05-27T11:33:53.084Z,33.62
2018-05-27T11:35:54.547Z,33.74
2018-05-27T11:37:55.996Z,33.33
2018-05-27T11:39:57.482Z,36.28
2018-05-27T11:41:58.978Z,34.70
2018-05-27T11:44:00.480Z,33.53
2018-05-27T11:46:01.959Z,34.62
2018-05-27T11:48:03.404Z,34.62
2018-05-27T11:50:04.857Z,34.33
2018-05-27T11:52:06.362Z,35.11
2018-05-27T11:54:07.824Z,34.33
2018-05-27T11:56:09.314Z,31.39
2018-05-27T11:58:10.769Z,33.85
2018-05-27T12:00:12.262Z,35.22
2018-05-27T12:02:14.115Z,35.24
2018-05-27T12:04:15.895Z,32.60
2018-05-27T12:06:17.422Z,32.20
2018-05-27T12:08:19.099Z,32.51
2018-05-27T12:10:20.816Z,32.70
2018-05-27T12:12:22.303Z,32.30
2018-05-27T12:14:23.805Z,30.72
2018-05-27T12:16:25.331Z,31.11
2018-05-27T12:18:26.780Z,30.02
2018-05-27T12:20:28.259Z,30.02
2018-05-27T12:22:29.754Z,30.69
2018-05-27T12:24:31.256Z,31.87
2018-05-27T12:26:32.711Z,31.87
2018-05-27T12:28:34.200Z,32.55
2018-05-27T12:30:35.719Z,32.35
2018-05-27T12:32:37.163Z,34.50
2018-05-27T12:34:38.626Z,33.84
2018-05-27T12:36:40.107Z,32.27
2018-05-27T12:38:41.563Z,33.25
2018-05-27T12:40:43.013Z,32.46
2018-05-27T12:42:44.589Z,32.07
2018-05-27T12:44:46.002Z,32.46
2018-05-27T12:46:47.498Z,31.68
2018-05-27T12:48:48.979Z,32.37
2018-05-27T12:50:50.480Z,32.56
2018-05-27T12:52:51.934Z,32.56
2018-05-27T12:54:53.372Z,32.17
2018-05-27T12:56:54.859Z,33.53
2018-05-27T12:58:56.298Z,33.33
2018-05-27T13:00:57.781Z,34.21
2018-05-27T13:02:59.210Z,33.92
2018-05-27T13:05:00.656Z,32.55
2018-05-27T13:07:02.106Z,32.43
2018-05-27T13:09:03.549Z,32.92
2018-05-27T13:11:05.004Z,33.51
2018-05-27T13:13:06.481Z,33.89
2018-05-27T13:15:07.939Z,33.50
2018-05-27T13:17:09.381Z,33.40
2018-05-27T13:19:10.822Z,34.26
2018-05-27T13:21:12.274Z,33.77
2018-05-27T13:23:13.713Z,34.55
2018-05-27T13:25:15.189Z,33.65
2018-05-27T13:27:16.633Z,36.21
2018-05-27T13:29:18.081Z,34.24
2018-05-27T13:31:19.525Z,34.73
2018-05-27T13:33:20.972Z,36.19
2018-05-27T13:35:22.410Z,34.14
2018-05-27T13:37:23.861Z,35.63
2018-05-27T13:39:25.330Z,35.24
2018-05-27T13:41:26.888Z,34.65
2018-05-27T13:43:28.393Z,34.55
2018-05-27T13:45:29.839Z,36.02
2018-05-27T13:47:31.327Z,34.26
2018-05-27T13:49:32.784Z,34.26
2018-05-27T13:51:34.253Z,35.33
2018-05-27T13:53:35.699Z,34.73
2018-05-27T13:55:37.140Z,34.36
2018-05-27T13:57:38.584Z,34.83
2018-05-27T13:59:40.029Z,36.58
2018-05-27T14:01:41.479Z,33.85
2018-05-27T14:03:42.918Z,34.63
2018-05-27T14:05:44.362Z,34.92
2018-05-27T14:07:45.804Z,36.68
2018-05-27T14:09:47.254Z,36.00
2018-05-27T14:12:29.704Z,35.80
2018-05-27T14:14:31.159Z,35.71
2018-05-27T14:16:32.601Z,36.49
2018-05-27T14:18:34.044Z,35.61
2018-05-27T14:20:35.483Z,34.14
2018-05-27T14:22:36.923Z,34.92
2018-05-27T14:24:38.371Z,36.39
2018-05-27T14:26:39.800Z,36.41
2018-05-27T14:28:41.252Z,36.58
2018-05-27T14:30:42.693Z,35.63
2018-05-27T14:32:44.133Z,37.67
2018-05-27T14:34:45.574Z,36.51
2018-05-27T14:36:47.017Z,37.09
2018-05-27T14:38:48.464Z,35.72
2018-05-27T14:40:49.901Z,35.33
2018-05-27T14:42:51.347Z,35.14
2018-05-27T14:44:52.815Z,37.55
2018-05-27T14:46:54.230Z,39.04
2018-05-27T14:48:55.698Z,36.49
2018-05-27T14:50:57.138Z,40.29
2018-05-27T14:52:58.621Z,36.88
2018-05-27T14:55:00.080Z,34.61
2018-05-27T14:57:01.516Z,38.42
2018-05-27T14:59:02.963Z,36.96
2018-05-27T15:01:04.400Z,37.83
2018-05-27T15:03:05.855Z,35.88
2018-05-27T15:05:07.291Z,39.49
2018-05-27T15:07:08.746Z,40.56
2018-05-27T15:09:10.180Z,40.64
2018-05-27T15:11:11.631Z,37.13
2018-05-27T15:13:13.119Z,35.86
2018-05-27T15:15:14.634Z,37.41
2018-05-27T15:17:16.107Z,38.87
2018-05-27T15:19:17.555Z,39.43
2018-05-27T15:21:19.000Z,39.82
2018-05-27T15:23:20.442Z,40.80
2018-05-27T15:25:22.003Z,40.89
2018-05-27T15:27:23.470Z,41.48
2018-05-27T15:29:24.991Z,41.67
2018-05-27T15:31:26.454Z,41.09
2018-05-27T15:33:27.922Z,42.06
2018-05-27T15:35:29.409Z,40.50
2018-05-27T15:37:30.850Z,43.13
2018-05-27T15:39:32.279Z,42.84
2018-05-27T15:41:33.714Z,43.13
2018-05-27T15:43:35.165Z,41.75
2018-05-27T15:45:36.605Z,40.97
2018-05-27T15:47:38.040Z,43.19
2018-05-27T15:49:39.584Z,41.93
2018-05-27T15:51:41.028Z,43.65
2018-05-27T15:53:42.533Z,47.93
2018-05-27T15:55:43.910Z,53.08
2018-05-27T15:57:45.358Z,58.01
2018-05-27T15:59:46.843Z,59.38
2018-05-27T16:01:48.232Z,61.71
2018-05-27T16:03:49.673Z,61.19
2018-05-27T16:05:51.117Z,62.23
2018-05-27T16:07:52.554Z,64.17
2018-05-27T16:09:53.992Z,62.52
2018-05-27T16:11:55.452Z,63.95
2018-05-27T16:13:56.901Z,65.11
2018-05-27T16:15:58.340Z,64.43
2018-05-27T16:17:59.768Z,65.08
2018-05-27T16:20:01.215Z,64.78
2018-05-27T16:22:02.669Z,62.46
2018-05-27T16:24:04.105Z,63.04
2018-05-27T16:26:05.551Z,64.98
2018-05-27T16:28:06.985Z,66.40
2018-05-27T16:30:08.424Z,67.99
2018-05-27T16:32:50.857Z,68.82
2018-05-27T16:34:52.297Z,69.41
2018-05-27T16:36:53.735Z,68.24
2018-05-27T16:39:36.172Z,70.61
2018-05-27T16:41:37.607Z,67.76
2018-05-27T16:43:39.046Z,70.28
2018-05-27T16:45:40.540Z,69.70
2018-05-27T16:47:41.924Z,70.67
2018-05-27T16:49:43.371Z,71.44
2018-05-27T16:51:44.809Z,72.80
2018-05-27T16:53:46.246Z,72.41
2018-05-27T16:55:47.682Z,72.45
2018-05-27T16:57:49.121Z,73.13
2018-05-27T16:59:50.557Z,72.45
2018-05-27T17:02:32.983Z,72.41
2018-05-27T17:04:34.424Z,71.93
2018-05-27T17:06:35.864Z,69.50
2018-05-27T17:08:37.301Z,68.34
2018-05-27T17:10:38.736Z,70.28
2018-05-27T17:12:40.184Z,71.83
2018-05-27T17:14:41.618Z,70.86
2018-05-27T17:16:43.110Z,71.25
2018-05-27T17:18:44.534Z,72.02
2018-05-27T17:20:45.968Z,70.86
2018-05-27T17:22:47.406Z,69.08
2018-05-27T17:24:48.867Z,71.50
2018-05-27T17:26:50.284Z,69.67
2018-05-27T17:28:51.721Z,70.63
2018-05-27T17:30:53.161Z,69.47
2018-05-27T17:32:54.592Z,70.18
2018-05-27T17:34:56.034Z,70.28
2018-05-27T17:36:57.476Z,71.54
2018-05-27T17:38:58.930Z,71.83
2018-05-27T17:41:00.381Z,70.18
2018-05-27T17:43:01.826Z,68.82
2018-05-27T17:45:03.269Z,69.41
2018-05-27T17:47:04.771Z,68.34
2018-05-27T17:49:06.152Z,69.89
2018-05-27T17:51:07.597Z,70.47
2018-05-27T17:53:09.041Z,70.18
2018-05-27T17:55:10.531Z,69.70
2018-05-27T17:57:12.007Z,69.79
2018-05-27T17:59:13.442Z,71.64
2018-05-27T18:01:14.877Z,69.95
2018-05-27T18:03:16.315Z,64.62
2018-05-27T18:05:17.753Z,68.02
2018-05-27T18:07:19.203Z,66.75
2018-05-27T18:09:20.639Z,63.85
2018-05-27T18:11:22.356Z,66.37
2018-05-27T18:13:24.065Z,68.79
2018-05-27T18:15:25.765Z,69.37
2018-05-27T18:17:27.591Z,70.44
2018-05-27T18:19:29.229Z,69.85
2018-05-27T18:21:30.892Z,69.85
2018-05-27T18:23:32.611Z,69.05
2018-05-27T18:25:34.123Z,69.63
2018-05-27T18:27:36.171Z,70.31
2018-05-27T18:29:38.091Z,69.82
2018-05-27T18:31:39.844Z,70.79
2018-05-27T18:33:41.539Z,71.47
2018-05-27T18:35:43.391Z,71.18
2018-05-27T18:37:45.090Z,72.02
2018-05-27T18:39:46.872Z,71.53
2018-05-27T18:42:29.263Z,70.66
2018-05-27T18:44:30.709Z,71.82
2018-05-27T18:46:32.147Z,71.14
2018-05-27T18:48:33.584Z,71.82
2018-05-27T18:50:35.014Z,71.72
2018-05-27T18:53:16.449Z,71.34
2018-05-27T18:55:17.877Z,71.30
2018-05-27T18:57:19.333Z,71.53
2018-05-27T18:59:20.771Z,71.34
2018-05-27T19:02:03.275Z,70.62
2018-05-27T19:04:04.700Z,71.30
2018-05-27T19:06:06.270Z,71.30
2018-05-27T19:08:07.789Z,71.20
2018-05-27T19:10:09.257Z,71.88
2018-05-27T19:12:51.723Z,71.98
2018-05-27T19:14:53.206Z,70.24
2018-05-27T19:16:54.752Z,71.59
2018-05-27T19:18:57.099Z,70.78
2018-05-27T19:21:39.616Z,71.17
2018-05-27T19:23:41.578Z,71.75
2018-05-27T19:25:43.109Z,71.36
2018-05-27T19:27:45.019Z,71.26
2018-05-27T19:29:47.147Z,71.08
2018-05-27T19:31:49.276Z,71.72
2018-05-27T19:33:50.853Z,70.20
2018-05-27T19:35:52.490Z,70.65
2018-05-27T19:37:55.774Z,70.56
2018-05-27T19:39:57.298Z,70.07
2018-05-27T19:41:58.751Z,70.75
2018-05-27T19:44:00.219Z,71.33
2018-05-27T19:46:01.695Z,70.65
2018-05-27T19:48:03.139Z,71.42
2018-05-27T19:50:04.562Z,71.04
2018-05-27T19:52:05.996Z,71.23
2018-05-27T19:54:07.429Z,71.72
2018-05-27T19:56:08.857Z,71.78
2018-05-27T19:58:10.308Z,71.87
2018-05-27T20:00:11.765Z,71.78
2018-05-27T20:02:13.204Z,71.78
2018-05-27T20:04:14.645Z,70.90
2018-05-27T20:06:16.173Z,71.00
2018-05-27T20:08:17.639Z,71.10
2018-05-27T20:10:19.051Z,71.20
2018-05-27T20:12:20.507Z,71.48
2018-05-27T20:14:21.947Z,71.78
2018-05-27T20:16:23.382Z,71.58
2018-05-27T20:18:24.898Z,71.97
2018-05-27T20:20:26.339Z,71.87
2018-05-27T20:22:27.765Z,71.84
2018-05-27T20:24:29.258Z,71.64
2018-05-27T20:26:30.858Z,71.64
2018-05-27T20:28:32.394Z,71.74
2018-05-27T20:30:33.914Z,71.84
2018-05-27T20:32:35.514Z,71.64
2018-05-27T20:34:37.000Z,71.74
2018-05-27T20:36:38.529Z,72.13
2018-05-27T20:38:39.995Z,72.32
2018-05-27T20:40:42.107Z,72.71
2018-05-27T20:42:43.812Z,72.61
2018-05-27T20:44:45.634Z,72.22
2018-05-27T20:46:47.170Z,73.00
2018-05-27T20:48:48.707Z,73.28
2018-05-27T20:50:50.199Z,72.80
2018-05-27T20:52:51.656Z,72.96
2018-05-27T20:54:53.153Z,73.06
2018-05-27T20:56:54.685Z,72.77
2018-05-27T20:58:56.107Z,73.15
2018-05-27T21:00:57.603Z,73.15
2018-05-27T21:02:59.114Z,73.54
2018-05-27T21:05:00.891Z,73.35
2018-05-27T21:07:02.375Z,73.15
2018-05-27T21:09:03.921Z,73.25
2018-05-27T21:11:05.418Z,73.54
2018-05-27T21:13:06.980Z,73.25
2018-05-27T21:15:08.497Z,73.54
2018-05-27T21:17:10.000Z,73.21
2018-05-27T21:19:11.461Z,73.54
2018-05-27T21:21:12.943Z,73.31
2018-05-27T21:23:14.499Z,73.02
2018-05-27T21:25:15.982Z,73.44
2018-05-27T21:27:17.948Z,73.63
2018-05-27T21:29:19.454Z,74.08
2018-05-27T21:31:20.994Z,73.50
2018-05-27T21:33:22.546Z,74.08
2018-05-27T21:35:24.043Z,73.79
2018-05-27T21:37:25.596Z,73.50
2018-05-27T21:39:27.149Z,73.50
2018-05-27T21:41:28.697Z,73.99
2018-05-27T21:43:30.218Z,74.08
2018-05-27T21:45:31.702Z,73.99
2018-05-27T21:47:33.204Z,73.89
2018-05-27T21:49:34.708Z,73.69
2018-05-27T21:51:36.356Z,73.99
2018-05-27T21:53:38.386Z,73.99
2018-05-27T21:55:39.838Z,73.79
2018-05-27T21:57:41.351Z,73.50
2018-05-27T21:59:42.825Z,73.85
2018-05-27T22:01:44.320Z,73.85
2018-05-27T22:03:46.221Z,73.95
2018-05-27T22:05:47.780Z,74.62
2018-05-27T22:07:49.260Z,74.14
2018-05-27T22:09:50.920Z,74.52
2018-05-27T22:11:52.559Z,74.62
2018-05-27T22:13:54.220Z,74.62
2018-05-27T22:15:57.197Z,74.62
2018-05-27T22:17:59.357Z,74.62
2018-05-27T22:20:00.953Z,75.01
2018-05-27T22:22:02.459Z,74.91
2018-05-27T22:24:04.090Z,75.01
2018-05-27T22:26:05.688Z,75.10
2018-05-27T22:28:07.162Z,75.20
2018-05-27T22:30:08.631Z,75.30
2018-05-27T22:32:10.196Z,74.91
2018-05-27T22:34:11.709Z,74.72
2018-05-27T22:36:13.222Z,74.72
2018-05-27T22:38:14.715Z,75.49
2018-05-27T22:40:16.229Z,75.20
2018-05-27T22:42:17.731Z,75.36
2018-05-27T22:44:19.218Z,75.40
2018-05-27T22:46:20.694Z,75.26
2018-05-27T22:48:22.213Z,75.07
2018-05-27T22:50:23.681Z,75.36
2018-05-27T22:52:25.272Z,75.36
2018-05-27T22:54:26.778Z,75.55
2018-05-27T22:56:28.331Z,76.13
2018-05-27T22:58:29.859Z,75.65
2018-05-27T23:00:31.363Z,75.65
2018-05-27T23:02:32.884Z,75.36
2018-05-27T23:04:34.516Z,75.45
2018-05-27T23:06:36.883Z,75.45
2018-05-27T23:08:38.649Z,75.84
2018-05-27T23:10:40.116Z,75.55
2018-05-27T23:12:41.585Z,76.13
2018-05-27T23:14:43.292Z,75.74
2018-05-27T23:16:44.806Z,76.71
2018-05-27T23:18:46.346Z,76.51
2018-05-27T23:20:47.833Z,76.57
2018-05-27T23:22:49.324Z,76.71
2018-05-27T23:24:50.832Z,77.19
2018-05-27T23:26:52.444Z,77.09
2018-05-27T23:28:53.923Z,77.19
2018-05-27T23:30:55.450Z,77.19
2018-05-27T23:32:56.910Z,77.19
2018-05-27T23:34:58.399Z,77.25
2018-05-27T23:36:59.894Z,77.00
2018-05-27T23:39:01.328Z,77.58
2018-05-27T23:41:03.418Z,77.48
2018-05-27T23:43:45.813Z,76.90
2018-05-27T23:45:47.340Z,77.19
2018-05-27T23:47:48.848Z,77.73
2018-05-27T23:49:50.271Z,77.73
2018-05-27T23:51:51.694Z,77.44
2018-05-27T23:53:53.134Z,77.25
2018-05-27T23:55:54.613Z,77.83
2018-05-27T23:57:56.168Z,77.92
2018-05-27T23:59:57.609Z,77.73
